Time;durP1;ratioP1;P1;durP2;ratioP2;P2;SDS_P1;SDS_P2;PMS_P1;PMS_P2;Temp;Humidity;BMP_temperature;BMP_pressure;BME280_temperature;BME280_humidity;BME280_pressure;Samples;Min_cycle;Max_cycle;Signal;HPM_P1;HPM_P2
2023/09/26 00:01:06;;;;;;;0.00;0.00;;;;;;;13.60;100.00;100644.06;4869924;29;20167;-75
2023/09/26 00:03:32;;;;;;;0.00;0.00;;;;;;;13.58;100.00;100649.00;4873355;29;20036;-75
2023/09/26 00:05:57;;;;;;;0.00;0.00;;;;;;;13.59;100.00;100645.16;4837311;29;20025;-75
2023/09/26 00:08:23;;;;;;;0.00;0.00;;;;;;;13.60;100.00;100657.81;4841077;29;20444;-77
2023/09/26 00:10:48;;;;;;;0.00;0.00;;;;;;;13.55;100.00;100649.56;4857435;29;20036;-77
2023/09/26 00:13:15;;;;;;;0.00;0.00;;;;;;;13.58;100.00;100654.50;4840215;29;20497;-76
2023/09/26 00:15:40;;;;;;;0.00;0.00;;;;;;;13.54;100.00;100658.94;4865637;29;20487;-74
2023/09/26 00:18:06;;;;;;;0.00;0.00;;;;;;;13.43;100.00;100667.22;4860534;29;20029;-76
2023/09/26 00:20:34;;;;;;;0.00;0.00;;;;;;;13.35;100.00;100662.28;4851324;29;20045;-76
2023/09/26 00:23:00;;;;;;;0.00;0.00;;;;;;;13.30;100.00;100665.00;4869796;29;20039;-75
2023/09/26 00:25:26;;;;;;;0.00;0.00;;;;;;;13.26;100.00;100656.50;4893379;29;20410;-76
2023/09/26 00:27:52;;;;;;;0.00;0.00;;;;;;;13.15;100.00;100645.81;4854413;29;20028;-75
2023/09/26 00:30:19;;;;;;;0.00;0.00;;;;;;;13.14;100.00;100649.66;4859369;29;20025;-75
2023/09/26 00:32:45;;;;;;;0.00;0.00;;;;;;;13.10;100.00;100655.72;4875525;29;20037;-76
2023/09/26 00:35:13;;;;;;;0.00;0.00;;;;;;;13.09;100.00;100656.78;4888970;29;20035;-77
2023/09/26 00:37:40;;;;;;;0.00;0.00;;;;;;;13.03;100.00;100649.69;4875906;29;20036;-76
2023/09/26 00:40:24;;;;;;;0.00;0.00;;;;;;;12.97;100.00;100645.31;4854533;29;20041;-76
2023/09/26 00:42:50;;;;;;;0.00;0.00;;;;;;;12.97;100.00;100637.06;4854927;29;20051;-76
2023/09/26 00:45:15;;;;;;;0.00;0.00;;;;;;;12.98;100.00;100646.13;4841707;29;20381;-77
2023/09/26 00:47:42;;;;;;;0.00;0.00;;;;;;;12.97;100.00;100644.50;4848181;29;20929;-78
2023/09/26 00:50:12;;;;;;;0.05;0.05;;;;;;;12.88;100.00;100631.31;4857063;29;20041;-78
2023/09/26 00:52:41;;;;;;;0.00;0.00;;;;;;;12.82;100.00;100626.09;4872620;29;20032;-78
2023/09/26 00:55:07;;;;;;;0.08;0.08;;;;;;;12.82;100.00;100637.06;4875483;29;20029;-77
2023/09/26 00:57:33;;;;;;;0.00;0.00;;;;;;;12.81;100.00;100638.19;4871821;29;20456;-77
2023/09/26 01:00:02;;;;;;;0.00;0.00;;;;;;;12.77;100.00;100629.69;4875045;29;20033;-76
2023/09/26 01:02:27;;;;;;;0.00;0.00;;;;;;;12.68;100.00;100618.44;4884763;29;20060;-77
2023/09/26 01:04:53;;;;;;;0.00;0.00;;;;;;;12.66;100.00;100617.06;4884014;29;20040;-77
2023/09/26 01:07:19;;;;;;;0.00;0.00;;;;;;;12.68;100.00;100618.44;4870888;29;20124;-77
2023/09/26 01:09:44;;;;;;;0.00;0.00;;;;;;;12.66;100.00;100620.63;4868782;29;20029;-78
2023/09/26 01:12:11;;;;;;;0.00;0.00;;;;;;;12.70;100.00;100619.00;4837726;29;20040;-77
2023/09/26 01:14:36;;;;;;;0.00;0.00;;;;;;;12.68;100.00;100604.72;4870144;29;20036;-77
2023/09/26 01:17:02;;;;;;;0.00;0.00;;;;;;;12.66;100.00;100595.94;4891475;29;20032;-77
2023/09/26 01:19:27;;;;;;;0.00;0.00;;;;;;;12.64;100.00;100591.81;4838375;29;20429;-77
2023/09/26 01:21:53;;;;;;;0.00;0.00;;;;;;;12.68;100.00;100591.00;4873638;29;20036;-77
2023/09/26 01:24:18;;;;;;;0.00;0.00;;;;;;;12.75;100.00;100597.03;4838025;29;20115;-77
2023/09/26 01:26:44;;;;;;;0.00;0.00;;;;;;;12.61;100.00;100574.00;4872221;29;20036;-78
2023/09/26 01:29:10;;;;;;;0.00;0.00;;;;;;;12.73;100.00;100595.66;4853462;29;20144;-76
2023/09/26 01:31:36;;;;;;;0.00;0.00;;;;;;;12.71;100.00;100586.88;4868212;29;20055;-77
2023/09/26 01:34:02;;;;;;;0.00;0.00;;;;;;;12.73;100.00;100579.19;4856421;29;20155;-77
2023/09/26 01:36:28;;;;;;;0.00;0.00;;;;;;;12.78;100.00;100581.13;4886199;29;20033;-77
2023/09/26 01:38:56;;;;;;;0.00;0.00;;;;;;;12.86;100.00;100578.59;4889838;29;20036;-76
2023/09/26 01:41:23;;;;;;;0.00;0.00;;;;;;;12.89;100.00;100577.22;4856527;29;20043;-76
2023/09/26 01:43:48;;;;;;;0.00;0.00;;;;;;;12.94;100.00;100569.00;4858022;29;20476;-77
2023/09/26 01:46:13;;;;;;;0.00;0.00;;;;;;;13.01;100.00;100580.53;4878289;29;20063;-76
2023/09/26 01:48:39;;;;;;;0.00;0.00;;;;;;;13.06;100.00;100583.22;4858564;29;20407;-76
2023/09/26 01:51:05;;;;;;;0.00;0.00;;;;;;;13.12;100.00;100578.56;4861206;29;20471;-76
2023/09/26 01:53:30;;;;;;;0.00;0.00;;;;;;;13.21;100.00;100576.06;4863769;29;20067;-76
2023/09/26 01:55:59;;;;;;;0.00;0.00;;;;;;;13.32;100.00;100579.59;4894488;29;20197;-76
2023/09/26 01:58:25;;;;;;;0.00;0.00;;;;;;;13.35;100.00;100571.63;4862616;29;20036;-77
2023/09/26 02:00:50;;;;;;;0.00;0.00;;;;;;;13.49;100.00;100579.28;4847123;29;20039;-76
2023/09/26 02:03:15;;;;;;;0.00;0.00;;;;;;;13.52;100.00;100562.22;4875225;29;20056;-76
2023/09/26 02:05:41;;;;;;;0.00;0.00;;;;;;;13.59;100.00;100562.72;4845677;29;20037;-76
2023/09/26 02:08:06;;;;;;;0.00;0.00;;;;;;;13.70;100.00;100558.84;4859895;29;20033;-75
2023/09/26 02:10:32;;;;;;;0.00;0.00;;;;;;;13.75;100.00;100547.78;4856267;29;20106;-77
2023/09/26 02:12:58;;;;;;;0.00;0.00;;;;;;;13.83;100.00;100548.28;4842446;29;20029;-76
2023/09/26 02:15:23;;;;;;;0.00;0.00;;;;;;;13.83;100.00;100545.56;4836308;29;20021;-75
2023/09/26 02:17:49;;;;;;;0.00;0.00;;;;;;;13.83;100.00;100526.31;4858420;29;20036;-76
2023/09/26 02:20:16;;;;;;;0.00;0.00;;;;;;;13.82;100.00;100521.94;4877242;29;20064;-75
2023/09/26 02:22:49;;;;;;;0.00;0.00;;;;;;;13.91;100.00;100526.53;4875565;29;21169;-76
2023/09/26 02:25:18;;;;;;;0.00;0.00;;;;;;;13.92;100.00;100524.63;4870332;29;20060;-76
2023/09/26 02:27:44;;;;;;;0.00;0.00;;;;;;;13.96;100.00;100525.69;4842552;29;20547;-76
2023/09/26 02:30:15;;;;;;;0.00;0.00;;;;;;;13.88;100.00;100520.78;4876119;29;20036;-75
2023/09/26 02:32:41;;;;;;;0.00;0.00;;;;;;;13.76;100.00;100518.41;4892275;29;20415;-75
2023/09/26 02:35:08;;;;;;;0.00;0.00;;;;;;;13.61;100.00;100511.09;4855619;29;20697;-75
2023/09/26 02:37:34;;;;;;;0.00;0.00;;;;;;;13.66;100.00;100513.78;4871015;29;20442;-76
2023/09/26 02:40:00;;;;;;;0.00;0.00;;;;;;;13.65;100.00;100506.63;4852940;29;20128;-76
2023/09/26 02:42:26;;;;;;;0.00;0.00;;;;;;;13.74;100.00;100504.94;4867359;29;20476;-75
2023/09/26 02:44:52;;;;;;;0.10;0.10;;;;;;;13.75;100.00;100495.56;4894015;29;20035;-75
2023/09/26 02:47:17;;;;;;;0.00;0.00;;;;;;;13.74;100.00;100482.97;4859631;29;20025;-75
2023/09/26 02:49:43;;;;;;;0.00;0.00;;;;;;;13.74;100.00;100480.22;4857387;29;20029;-76
2023/09/26 02:52:08;;;;;;;0.00;0.00;;;;;;;13.70;100.00;100468.16;4869596;29;20083;-76
2023/09/26 02:54:34;;;;;;;0.00;0.00;;;;;;;13.75;100.00;100476.34;4869448;29;20031;-76
2023/09/26 02:56:59;;;;;;;0.00;0.00;;;;;;;13.75;100.00;100465.34;4859331;29;20116;-76
2023/09/26 02:59:25;;;;;;;0.00;0.00;;;;;;;13.77;100.00;100449.41;4891074;29;20047;-76
2023/09/26 03:01:51;;;;;;;0.00;0.00;;;;;;;13.89;100.00;100456.47;4861047;29;20036;-77
2023/09/26 03:04:17;;;;;;;0.00;0.00;;;;;;;13.96;100.00;100456.97;4846954;29;20127;-76
2023/09/26 03:06:44;;;;;;;0.00;0.00;;;;;;;14.00;100.00;100459.94;4859803;29;20495;-77
2023/09/26 03:09:09;;;;;;;0.00;0.00;;;;;;;14.05;100.00;100444.22;4861747;29;20047;-77
2023/09/26 03:11:35;;;;;;;0.00;0.00;;;;;;;14.23;100.00;100450.13;4891233;29;20064;-76
2023/09/26 03:14:00;;;;;;;0.00;0.00;;;;;;;14.29;100.00;100448.94;4858030;29;20025;-75
2023/09/26 03:16:25;;;;;;;0.00;0.00;;;;;;;14.32;100.00;100442.84;4859665;29;20515;-77
2023/09/26 03:18:56;;;;;;;0.00;0.00;;;;;;;14.33;100.00;100428.00;4847546;29;20076;-76
2023/09/26 03:21:22;;;;;;;0.00;0.00;;;;;;;14.40;100.00;100433.16;4883648;29;20059;-76
2023/09/26 03:23:48;;;;;;;0.00;0.00;;;;;;;14.47;100.00;100433.63;4878584;29;20033;-76
2023/09/26 03:26:14;;;;;;;0.00;0.00;;;;;;;14.49;100.00;100426.72;4851515;29;20029;-77
2023/09/26 03:28:40;;;;;;;0.00;0.00;;;;;;;14.53;100.00;100421.47;4861727;29;20028;-75
2023/09/26 03:31:09;;;;;;;0.00;0.00;;;;;;;14.56;100.00;100425.53;4862678;29;20036;-77
2023/09/26 03:33:34;;;;;;;0.00;0.00;;;;;;;14.58;100.00;100417.84;4859134;29;20384;-74
2023/09/26 03:36:00;;;;;;;0.00;0.00;;;;;;;14.58;100.00;100424.16;4877165;29;20057;-74
2023/09/26 03:38:26;;;;;;;0.00;0.00;;;;;;;14.60;100.00;100410.09;4892271;29;20120;-75
2023/09/26 03:41:05;;;;;;;0.00;0.00;;;;;;;14.64;100.00;100411.19;4869492;29;20036;-74
2023/09/26 03:43:31;;;;;;;0.00;0.00;;;;;;;14.64;100.00;100400.16;4874564;29;20032;-73
2023/09/26 03:46:07;;;;;;;0.00;0.00;;;;;;;14.63;100.00;100404.03;4887513;29;20036;-74
2023/09/26 03:48:34;;;;;;;0.00;0.00;;;;;;;14.60;100.00;100394.41;4885979;29;21275;-74
2023/09/26 03:51:10;;;;;;;0.00;0.00;;;;;;;14.63;100.00;100395.78;4876279;29;20033;-74
2023/09/26 03:53:36;;;;;;;0.00;0.00;;;;;;;14.57;100.00;100383.16;4873336;29;20036;-75
2023/09/26 03:56:02;;;;;;;0.00;0.00;;;;;;;14.61;100.00;100373.22;4875883;29;20554;-75
2023/09/26 03:58:28;;;;;;;0.00;0.00;;;;;;;14.63;100.00;100365.50;4863789;29;20033;-76
2023/09/26 04:00:53;;;;;;;0.00;0.00;;;;;;;14.68;100.00;100362.69;4872969;29;20116;-74
2023/09/26 04:03:22;;;;;;;0.00;0.00;;;;;;;14.63;100.00;100354.50;4886101;29;20090;-74
2023/09/26 04:05:55;;;;;;;0.00;0.00;;;;;;;14.63;100.00;100354.50;4862731;29;20036;-74
2023/09/26 04:08:21;;;;;;;0.00;0.00;;;;;;;14.69;100.00;100353.34;4875799;29;20080;-74
2023/09/26 04:10:46;;;;;;;0.00;0.00;;;;;;;14.68;100.00;100346.19;4844167;29;20029;-75
2023/09/26 04:13:12;;;;;;;0.00;0.00;;;;;;;14.76;100.00;100348.28;4861666;29;20059;-75
2023/09/26 04:15:38;;;;;;;0.00;0.00;;;;;;;14.87;100.00;100346.19;4871543;29;20021;-75
2023/09/26 04:18:06;;;;;;;0.00;0.00;;;;;;;14.85;100.00;100342.94;4861029;29;20092;-77
2023/09/26 04:20:35;;;;;;;0.00;0.00;;;;;;;14.89;100.00;100351.41;4890964;29;20052;-78
2023/09/26 04:23:01;;;;;;;0.00;0.00;;;;;;;14.82;100.00;100330.56;4870200;29;20056;-79
2023/09/26 04:25:29;;;;;;;0.00;0.00;;;;;;;14.88;100.00;100336.84;4842260;29;20040;-78
2023/09/26 04:27:55;;;;;;;0.00;0.00;;;;;;;14.88;100.00;100336.84;4868915;29;20076;-78
2023/09/26 04:30:20;;;;;;;0.00;0.00;;;;;;;14.88;100.00;100327.75;4858440;29;20033;-77
2023/09/26 04:32:45;;;;;;;0.00;0.00;;;;;;;14.88;100.00;100312.06;4841388;29;20113;-78
2023/09/26 04:35:11;;;;;;;0.00;0.00;;;;;;;15.03;100.00;100319.25;4848831;29;20036;-77
2023/09/26 04:37:36;;;;;;;0.00;0.00;;;;;;;15.01;100.00;100303.03;4843126;29;20393;-78
2023/09/26 04:40:08;;;;;;;0.00;0.00;;;;;;;15.11;100.00;100315.84;4855446;29;21322;-77
2023/09/26 04:42:34;;;;;;;0.00;0.00;;;;;;;15.09;100.00;100307.03;4867741;29;20032;-76
2023/09/26 04:44:59;;;;;;;0.00;0.00;;;;;;;15.17;100.00;100325.66;4859301;29;20503;-76
2023/09/26 04:47:24;;;;;;;0.00;0.00;;;;;;;15.13;100.00;100313.59;4869840;29;20436;-75
2023/09/26 04:49:50;;;;;;;0.00;0.00;;;;;;;15.13;100.00;100302.59;4892883;29;20043;-76
2023/09/26 04:52:15;;;;;;;0.00;0.00;;;;;;;15.19;100.00;100295.88;4890715;29;20032;-76
2023/09/26 04:54:50;;;;;;;0.00;0.00;;;;;;;15.21;100.00;100286.50;4893327;29;20380;-77
2023/09/26 04:57:16;;;;;;;0.00;0.00;;;;;;;15.22;100.00;100288.94;4868091;29;20025;-76
2023/09/26 04:59:41;;;;;;;0.00;0.00;;;;;;;15.25;100.00;100293.03;4865686;29;20391;-77
2023/09/26 05:02:06;;;;;;;0.00;0.00;;;;;;;15.21;100.00;100287.31;4869595;29;20847;-79
2023/09/26 05:04:37;;;;;;;0.00;0.00;;;;;;;15.22;100.00;100274.38;4875617;29;20036;-79
2023/09/26 05:07:07;;;;;;;0.00;0.00;;;;;;;15.34;100.00;100280.22;4889496;29;20091;-78
2023/09/26 05:09:33;;;;;;;0.00;0.00;;;;;;;15.37;100.00;100260.31;4876730;29;20029;-79
2023/09/26 05:11:58;;;;;;;0.00;0.00;;;;;;;15.57;100.00;100283.94;4858810;29;20511;-77
2023/09/26 05:14:24;;;;;;;0.00;0.00;;;;;;;15.61;100.00;100284.16;4889041;29;20028;-78
2023/09/26 05:16:52;;;;;;;0.00;0.00;;;;;;;15.59;100.00;100270.66;4871161;29;20067;-79
2023/09/26 05:19:18;;;;;;;0.00;0.00;;;;;;;15.64;100.00;100272.53;4869619;29;20119;-77
2023/09/26 05:21:43;;;;;;;0.00;0.00;;;;;;;15.71;100.00;100267.41;4879512;29;20028;-78
2023/09/26 05:24:16;;;;;;;0.00;0.00;;;;;;;15.81;100.00;100267.28;4883783;29;20209;-78
2023/09/26 05:26:44;;;;;;;0.00;0.00;;;;;;;15.86;100.00;100261.66;4878473;29;20076;-78
2023/09/26 05:29:11;;;;;;;0.00;0.00;;;;;;;15.75;100.00;100232.59;4860577;29;20033;-78
2023/09/26 05:31:37;;;;;;;0.00;0.00;;;;;;;15.78;100.00;100233.94;4862759;29;20055;-78
2023/09/26 05:34:03;;;;;;;0.00;0.00;;;;;;;15.83;100.00;100237.44;4879459;29;20081;-77
2023/09/26 05:36:28;;;;;;;0.00;0.00;;;;;;;15.95;100.00;100245.22;4848460;29;20035;-78
2023/09/26 05:38:54;;;;;;;0.00;0.00;;;;;;;16.05;100.00;100244.19;4895203;29;20044;-76
2023/09/26 05:41:19;;;;;;;0.00;0.00;;;;;;;15.94;100.00;100231.72;4848550;29;20032;-77
2023/09/26 05:43:44;;;;;;;0.00;0.00;;;;;;;15.98;100.00;100232.75;4875705;29;20609;-77
2023/09/26 05:46:12;;;;;;;0.00;0.00;;;;;;;15.93;100.00;100213.53;4886194;29;20028;-77
2023/09/26 05:48:42;;;;;;;0.00;0.00;;;;;;;15.87;100.00;100224.69;4858554;29;20627;-78
2023/09/26 05:51:10;;;;;;;0.00;0.00;;;;;;;15.82;100.00;100219.28;4880934;29;20080;-80
2023/09/26 05:53:35;;;;;;;0.00;0.00;;;;;;;15.88;100.00;100234.56;4862945;29;20543;-80
2023/09/26 05:56:01;;;;;;;0.00;0.00;;;;;;;15.91;100.00;100243.38;4854097;29;20115;-78
2023/09/26 05:58:29;;;;;;;0.00;0.00;;;;;;;15.92;100.00;100256.06;4866317;29;20167;-78
2023/09/26 06:00:56;;;;;;;0.00;0.00;;;;;;;15.87;100.00;100238.47;4847521;29;20518;-78
2023/09/26 06:03:22;;;;;;;0.00;0.00;;;;;;;15.93;100.00;100252.16;4844007;29;20037;-79
2023/09/26 06:05:47;;;;;;;0.00;0.00;;;;;;;15.95;100.00;100239.69;4874076;29;20108;-76
2023/09/26 06:08:13;;;;;;;0.00;0.00;;;;;;;15.91;100.00;100243.38;4845138;29;20698;-76
2023/09/26 06:10:39;;;;;;;0.00;0.00;;;;;;;15.94;100.00;100237.25;4853485;29;21970;-77
2023/09/26 06:13:04;;;;;;;0.00;0.00;;;;;;;15.93;100.00;100235.59;4853011;29;20038;-77
2023/09/26 06:15:31;;;;;;;0.00;0.00;;;;;;;15.93;100.00;100235.59;4874722;29;20211;-77
2023/09/26 06:18:00;;;;;;;0.00;0.00;;;;;;;15.97;100.00;100239.38;4877125;29;20056;-77
2023/09/26 06:20:29;;;;;;;0.00;0.00;;;;;;;15.99;100.00;100240.72;4864150;29;20354;-76
2023/09/26 06:22:55;;;;;;;0.00;0.00;;;;;;;15.91;100.00;100215.81;4875305;29;20073;-76
2023/09/26 06:25:24;;;;;;;0.00;0.00;;;;;;;15.98;100.00;100232.75;4892034;29;20040;-76
2023/09/26 06:27:50;;;;;;;0.00;0.00;;;;;;;15.96;100.00;100226.72;4841311;29;20038;-75
2023/09/26 06:30:15;;;;;;;0.00;0.00;;;;;;;15.99;100.00;100229.69;4876810;29;20414;-75
2023/09/26 06:32:46;;;;;;;0.00;0.00;;;;;;;16.01;100.00;100226.63;4884597;29;20176;-78
2023/09/26 06:35:12;;;;;;;0.00;0.00;;;;;;;16.05;100.00;100225.69;4877235;29;20020;-76
2023/09/26 06:37:40;;;;;;;0.00;0.00;;;;;;;15.99;100.00;100207.63;4863914;29;20037;-74
2023/09/26 06:40:06;;;;;;;0.00;0.00;;;;;;;16.09;100.00;100217.66;4857698;29;20127;-74
2023/09/26 06:42:35;;;;;;;0.00;0.00;;;;;;;16.11;100.00;100215.38;4864504;29;20029;-74
2023/09/26 06:45:01;;;;;;;0.00;0.00;;;;;;;16.10;100.00;100212.94;4871545;29;20475;-74
2023/09/26 06:47:34;;;;;;;0.00;0.00;;;;;;;16.20;100.00;100216.28;4864975;29;20028;-73
2023/09/26 06:50:02;;;;;;;0.00;0.00;;;;;;;16.19;100.00;100205.56;4888280;29;20367;-76
2023/09/26 06:52:29;;;;;;;0.00;0.00;;;;;;;16.39;100.00;100229.94;4873606;29;20039;-72
2023/09/26 06:54:56;;;;;;;0.00;0.00;;;;;;;16.41;100.00;100229.63;4872486;29;20075;-72
2023/09/26 06:57:26;;;;;;;0.00;0.00;;;;;;;16.29;100.00;100210.84;4874165;29;20131;-72
2023/09/26 06:59:59;;;;;;;0.00;0.00;;;;;;;16.47;100.00;100239.44;4897445;29;20115;-73
2023/09/26 07:02:27;;;;;;;0.00;0.00;;;;;;;16.44;100.00;100240.06;4872534;29;20125;-72
2023/09/26 07:04:54;;;;;;;0.00;0.00;;;;;;;16.44;100.00;100223.50;4864439;29;20037;-74
2023/09/26 07:07:34;;;;;;;;;;;;;;;;;;;;;
2023/09/26 07:10:01;;;;;;;0.00;0.00;;;;;;;16.58;100.00;100246.34;4869582;29;20021;-73
2023/09/26 07:12:29;;;;;;;0.00;0.00;;;;;;;16.47;100.00;100228.41;4861909;29;20044;-73
2023/09/26 07:14:56;;;;;;;0.00;0.00;;;;;;;16.36;100.00;100216.75;4877961;29;20027;-73
2023/09/26 07:17:26;;;;;;;0.00;0.00;;;;;;;16.40;100.00;100228.81;4891256;29;20033;-73
2023/09/26 07:19:51;;;;;;;0.00;0.00;;;;;;;16.46;100.00;100235.03;4875096;29;20171;-73
2023/09/26 07:22:17;;;;;;;0.00;0.00;;;;;;;16.55;100.00;100246.97;4858174;29;20426;-73
2023/09/26 07:24:52;;;;;;;0.00;0.00;;;;;;;16.40;100.00;100205.94;4893785;29;20435;-73
2023/09/26 07:27:17;;;;;;;0.00;0.00;;;;;;;16.47;100.00;100220.13;4892225;29;20776;-73
2023/09/26 07:29:47;;;;;;;0.00;0.00;;;;;;;16.49;100.00;100220.63;4875565;29;20145;-73
2023/09/26 07:32:14;;;;;;;0.00;0.00;;;;;;;16.48;100.00;100223.69;4855417;29;20489;-72
2023/09/26 07:34:41;;;;;;;0.00;0.00;;;;;;;16.38;100.00;100236.59;4887150;29;20472;-72
2023/09/26 07:37:11;;;;;;;0.00;0.00;;;;;;;16.31;100.00;100219.66;4876269;29;20032;-72
2023/09/26 07:39:41;;;;;;;0.00;0.00;;;;;;;16.34;100.00;100240.25;4887411;29;20740;-73
2023/09/26 07:42:07;;;;;;;0.00;0.00;;;;;;;16.29;100.00;100229.34;4868523;29;20032;-73
2023/09/26 07:44:32;;;;;;;0.00;0.00;;;;;;;16.38;100.00;100252.31;4865156;29;20035;-73
2023/09/26 07:47:02;;;;;;;0.00;0.00;;;;;;;16.33;100.00;100283.59;4855843;29;20433;-72
2023/09/26 07:49:33;;;;;;;0.00;0.00;;;;;;;16.05;100.00;100282.81;4867216;29;20044;-73
2023/09/26 07:52:01;;;;;;;0.00;0.00;;;;;;;15.69;100.00;100280.69;4856207;29;20051;-73
2023/09/26 07:54:29;;;;;;;0.00;0.00;;;;;;;15.58;100.00;100268.22;4888675;29;20060;-72
2023/09/26 07:57:02;;;;;;;0.00;0.00;;;;;;;15.49;100.00;100260.66;4868893;29;20067;-73
2023/09/26 07:59:28;;;;;;;0.00;0.00;;;;;;;15.64;100.00;100289.06;4891112;29;20043;-72
2023/09/26 08:01:56;;;;;;;0.00;0.00;;;;;;;15.70;100.00;100288.66;4865032;29;20025;-73
2023/09/26 08:04:23;;;;;;;0.00;0.00;;;;;;;16.02;100.00;100272.41;4872109;29;20037;-72
2023/09/26 08:06:48;;;;;;;0.00;0.00;;;;;;;16.18;100.00;100265.44;4853888;29;20040;-72
2023/09/26 08:09:15;;;;;;;0.00;0.00;;;;;;;16.23;100.00;100273.59;4856348;29;20768;-73
2023/09/26 08:11:43;;;;;;;0.00;0.00;;;;;;;16.50;100.00;100288.50;4892699;29;20127;-73
2023/09/26 08:14:08;;;;;;;0.00;0.00;;;;;;;16.44;100.00;100275.94;4883244;29;20053;-72
2023/09/26 08:16:36;;;;;;;0.00;0.00;;;;;;;16.62;100.00;100263.13;4868404;29;20494;-72
2023/09/26 08:19:01;;;;;;;0.00;0.00;;;;;;;16.76;100.00;100252.03;4872053;29;20138;-72
2023/09/26 08:21:26;;;;;;;0.00;0.00;;;;;;;16.81;100.00;100264.91;4871289;29;20574;-72
2023/09/26 08:23:56;;;;;;;0.00;0.00;;;;;;;16.73;100.00;100274.72;4874380;29;20037;-72
2023/09/26 08:26:24;;;;;;;0.00;0.00;;;;;;;16.56;100.00;100269.88;4870089;29;20025;-72
2023/09/26 08:28:50;;;;;;;0.00;0.00;;;;;;;16.58;100.00;100301.56;4866284;29;20611;-72
2023/09/26 08:31:17;;;;;;;0.00;0.00;;;;;;;16.29;100.00;100273.50;4871235;29;20139;-72
2023/09/26 08:33:53;;;;;;;0.00;0.00;;;;;;;16.28;100.00;100297.53;4889653;29;20459;-72
2023/09/26 08:36:29;;;;;;;0.00;0.00;;;;;;;16.29;100.00;100295.56;4890316;29;20448;-72
2023/09/26 08:39:04;;;;;;;0.00;0.00;;;;;;;16.35;100.00;100288.81;4886568;29;20031;-73
2023/09/26 08:41:44;;;;;;;;;;;;;;;16.44;100.00;100300.78;4886775;29;20036;-74
2023/09/26 08:44:11;;;;;;;0.00;0.00;;;;;;;16.46;100.00;100301.28;4891321;29;20058;-74
2023/09/26 08:46:37;;;;;;;0.00;0.00;;;;;;;16.48;100.00;100284.41;4869519;29;20075;-73
2023/09/26 08:49:04;;;;;;;0.00;0.00;;;;;;;16.89;100.00;100300.09;4872884;29;20368;-73
2023/09/26 08:51:32;;;;;;;0.00;0.00;;;;;;;17.37;100.00;100273.78;4900127;29;20059;-72
2023/09/26 08:54:05;;;;;;;0.00;0.00;;;;;;;18.25;100.00;100300.78;4870616;29;20032;-73
2023/09/26 08:56:35;;;;;;;0.00;0.00;;;;;;;19.01;97.40;100299.59;4877066;29;20036;-73
2023/09/26 08:59:01;;;;;;;0.00;0.00;;;;;;;22.07;81.16;100332.31;4891606;29;20601;-74
2023/09/26 09:01:31;;;;;;;0.00;0.00;;;;;;;23.32;71.81;100317.91;4898260;29;20115;-72
2023/09/26 09:03:59;;;;;;;0.00;0.00;;;;;;;22.73;71.17;100350.78;4844933;29;20828;-73
2023/09/26 09:06:35;;;;;;;0.00;0.00;;;;;;;21.79;72.87;100332.97;4878623;29;20043;-73
2023/09/26 09:09:13;;;;;;;0.00;0.00;;;;;;;21.56;72.62;100321.44;4871463;29;20029;-71
2023/09/26 09:11:48;;;;;;;;;;;;;;;;;;;;;
2023/09/26 09:14:16;;;;;;;0.00;0.00;;;;;;;22.81;68.00;100344.28;4901086;29;20034;-72
2023/09/26 09:16:56;;;;;;;0.00;0.00;;;;;;;22.11;65.75;100322.13;4877354;29;20036;-73
2023/09/26 09:19:42;;;;;;;0.00;0.00;;;;;;;21.91;66.20;100332.97;4873589;29;20117;-71
2023/09/26 09:22:18;;;;;;;0.00;0.00;;;;;;;21.63;68.79;100357.84;4885982;29;20511;-73
2023/09/26 09:24:52;;;;;;;0.00;0.00;;;;;;;21.43;69.36;100359.47;4873646;29;20049;-73
2023/09/26 09:27:27;;;;;;;;;;;;;;;21.53;67.96;100369.41;4868525;29;20048;-72
2023/09/26 09:30:07;;;;;;;0.00;0.00;;;;;;;21.43;69.16;100359.47;4877931;29;19911;-71
2023/09/26 09:32:34;;;;;;;0.00;0.00;;;;;;;21.88;66.34;100369.06;4869783;29;20028;-72
2023/09/26 09:35:00;;;;;;;0.00;0.00;;;;;;;22.22;64.15;100361.44;4893625;29;20035;-72
2023/09/26 09:37:26;;;;;;;0.00;0.00;;;;;;;22.85;62.52;100397.34;4877904;29;20037;-73
2023/09/26 09:39:52;;;;;;;0.00;0.00;;;;;;;23.09;61.74;100360.25;4858499;29;20024;-73
2023/09/26 09:42:17;;;;;;;0.00;0.00;;;;;;;23.95;57.80;100377.88;4861842;29;20055;-74
2023/09/26 09:44:43;;;;;;;0.00;0.00;;;;;;;25.16;57.98;100382.00;4860176;29;20058;-72
2023/09/26 09:47:13;;;;;;;0.00;0.00;;;;;;;26.15;52.61;100371.53;4867773;29;20044;-72
2023/09/26 09:49:41;;;;;;;0.00;0.00;;;;;;;28.34;48.68;100362.38;4887196;29;20036;-73
2023/09/26 09:52:10;;;;;;;0.00;0.00;;;;;;;29.67;43.25;100368.78;4873280;29;20056;-72
2023/09/26 09:54:43;;;;;;;0.00;0.00;;;;;;;30.03;41.26;100374.50;4877401;29;20033;-73
2023/09/26 09:57:10;;;;;;;0.00;0.00;;;;;;;31.86;38.39;100386.59;4876321;29;20368;-73
2023/09/26 09:59:37;;;;;;;0.00;0.00;;;;;;;32.50;36.18;100382.50;4862703;29;20021;-73
2023/09/26 10:02:04;;;;;;;0.00;0.00;;;;;;;32.53;35.26;100376.03;4871430;29;20052;-73
2023/09/26 10:04:34;;;;;;;0.00;0.00;;;;;;;33.16;34.59;100372.16;4875564;29;20093;-72
2023/09/26 10:07:00;;;;;;;0.00;0.00;;;;;;;33.22;33.36;100367.66;4872482;29;20035;-72
2023/09/26 10:09:27;;;;;;;0.00;0.00;;;;;;;34.13;32.85;100369.19;4882456;29;20025;-72
2023/09/26 10:11:54;;;;;;;0.00;0.00;;;;;;;33.95;30.90;100380.84;4877169;29;20037;-72
2023/09/26 10:14:22;;;;;;;0.00;0.00;;;;;;;33.29;33.11;100357.44;4855382;29;20033;-73
2023/09/26 10:16:47;;;;;;;0.00;0.00;;;;;;;33.34;32.10;100366.28;4893778;29;20080;-72
2023/09/26 10:19:14;;;;;;;0.00;0.00;;;;;;;32.82;33.26;100352.31;4840397;29;20088;-72
2023/09/26 10:21:41;;;;;;;0.00;0.00;;;;;;;31.46;35.14;100352.88;4862035;29;20048;-74
2023/09/26 10:24:12;;;;;;;0.00;0.00;;;;;;;31.28;35.73;100369.94;4871477;29;20047;-72
2023/09/26 10:26:47;;;;;;;0.00;0.00;;;;;;;32.43;34.34;100354.25;4876121;29;20111;-73
2023/09/26 10:29:27;;;;;;;0.00;0.00;;;;;;;32.94;34.46;100370.78;4871931;29;20052;-72
2023/09/26 10:31:55;;;;;;;0.00;0.00;;;;;;;35.25;31.15;100368.81;4843651;29;20064;-71
2023/09/26 10:34:28;;;;;;;0.00;0.00;;;;;;;36.57;28.07;100368.25;4887607;29;20043;-72
2023/09/26 10:36:55;;;;;;;0.00;0.00;;;;;;;37.38;26.00;100364.34;4876636;29;20495;-73
2023/09/26 10:39:32;;;;;;;0.00;0.00;;;;;;;36.75;27.00;100362.03;4872198;29;20024;-73
2023/09/26 10:42:23;;;;;;;0.00;0.00;;;;;;;36.38;26.63;100361.41;4889246;29;20031;-72
2023/09/26 10:44:51;;;;;;;0.00;0.00;;;;;;;36.69;26.79;100348.34;4869718;29;20067;-73
2023/09/26 10:47:40;;;;;;;0.00;0.00;;;;;;;37.01;26.24;100343.81;4860491;29;20080;-73
2023/09/26 10:50:08;;;;;;;0.00;0.00;;;;;;;36.97;26.10;100363.06;4871523;29;20435;-72
2023/09/26 10:52:34;;;;;;;0.00;0.00;;;;;;;37.63;25.34;100345.66;4887300;29;20021;-72
2023/09/26 10:55:00;;;;;;;0.00;0.00;;;;;;;38.67;25.07;100341.44;4850460;29;20444;-72
2023/09/26 10:57:25;;;;;;;0.00;0.00;;;;;;;39.17;24.19;100335.16;4880993;29;20120;-73
2023/09/26 10:59:51;;;;;;;0.00;0.00;;;;;;;39.24;23.76;100346.31;4875456;29;20027;-72
2023/09/26 11:02:17;;;;;;;0.00;0.00;;;;;;;38.82;24.00;100349.47;4871393;29;20033;-72
2023/09/26 11:04:43;;;;;;;0.00;0.00;;;;;;;38.91;22.79;100344.63;4857217;29;20039;-73
2023/09/26 11:07:09;;;;;;;0.00;0.00;;;;;;;36.04;25.53;100346.38;4853504;29;20044;-73
2023/09/26 11:09:44;;;;;;;0.00;0.00;;;;;;;35.21;26.30;100339.66;4893893;29;20027;-72
2023/09/26 11:12:12;;;;;;;0.00;0.00;;;;;;;34.42;26.40;100341.19;4872549;29;20119;-72
2023/09/26 11:14:37;;;;;;;0.00;0.00;;;;;;;34.43;26.08;100337.09;4887605;29;20017;-72
2023/09/26 11:17:04;;;;;;;0.00;0.00;;;;;;;33.32;27.74;100334.72;4870872;29;20039;-73
2023/09/26 11:19:30;;;;;;;0.00;0.00;;;;;;;31.99;30.13;100336.84;4892483;29;20447;-72
2023/09/26 11:21:56;;;;;;;0.00;0.00;;;;;;;33.31;28.89;100337.97;4866431;29;20140;-73
2023/09/26 11:24:24;;;;;;;0.00;0.00;;;;;;;32.70;29.79;100323.31;4872066;29;20032;-73